createdAt,value
2019-03-24T00:01:14.917Z,30.00
2019-03-24T00:03:42.995Z,29.75
2019-03-24T00:06:11.231Z,29.30
2019-03-24T00:08:39.302Z,29.77
2019-03-24T00:11:07.345Z,29.58
2019-03-24T00:13:36.179Z,30.52
2019-03-24T00:16:04.219Z,29.95
2019-03-24T00:18:32.271Z,29.95
2019-03-24T00:21:01.082Z,29.55
2019-03-24T00:23:29.143Z,30.60
2019-03-24T00:25:57.195Z,29.25
2019-03-24T00:28:25.221Z,28.53
2019-03-24T00:30:53.277Z,29.77
2019-03-24T00:33:21.340Z,29.77
2019-03-24T00:35:50.119Z,29.10
2019-03-24T00:38:18.175Z,29.25
2019-03-24T00:40:46.269Z,29.23
2019-03-24T00:43:14.318Z,28.58
2019-03-24T00:45:42.364Z,29.70
2019-03-24T00:48:10.427Z,29.60
2019-03-24T00:50:38.542Z,29.10
2019-03-24T00:53:06.603Z,28.67
2019-03-24T00:55:34.650Z,28.75
2019-03-24T00:58:02.757Z,27.80
2019-03-24T01:00:40.700Z,28.25
2019-03-24T01:03:08.779Z,28.55
2019-03-24T01:05:36.799Z,28.83
2019-03-24T01:08:04.839Z,29.77
2019-03-24T01:10:33.672Z,29.08
2019-03-24T01:13:01.724Z,29.05
2019-03-24T01:15:29.770Z,29.15
2019-03-24T01:17:58.596Z,28.48
2019-03-24T01:20:26.643Z,28.67
2019-03-24T01:22:54.711Z,28.48
2019-03-24T01:25:22.776Z,29.52
2019-03-24T01:27:51.580Z,28.25
2019-03-24T01:30:19.655Z,28.62
2019-03-24T01:32:47.698Z,28.67
2019-03-24T01:35:16.624Z,28.45
2019-03-24T01:37:44.692Z,28.35
2019-03-24T01:40:13.579Z,28.33
2019-03-24T01:42:41.619Z,28.77
2019-03-24T01:45:10.434Z,28.98
2019-03-24T01:47:38.479Z,29.02
2019-03-24T01:50:07.303Z,29.17
2019-03-24T01:52:35.318Z,28.00
2019-03-24T01:55:03.371Z,27.92
2019-03-24T01:57:31.499Z,28.85
2019-03-24T01:59:59.547Z,28.08
2019-03-24T02:02:28.355Z,27.95
2019-03-24T02:04:56.532Z,28.15
2019-03-24T02:07:24.575Z,27.58
2019-03-24T02:09:53.394Z,28.00
2019-03-24T02:12:21.452Z,27.42
2019-03-24T02:14:49.475Z,28.10
2019-03-24T02:17:17.515Z,27.75
2019-03-24T02:19:45.583Z,28.05
2019-03-24T02:22:13.616Z,27.70
2019-03-24T02:24:42.541Z,26.80
2019-03-24T02:27:10.611Z,27.92
2019-03-24T02:29:39.412Z,27.27
2019-03-24T02:32:07.456Z,27.55
2019-03-24T02:34:35.628Z,27.83
2019-03-24T02:37:04.412Z,28.10
2019-03-24T02:39:32.494Z,28.27
2019-03-24T02:42:00.548Z,27.45
2019-03-24T02:44:29.363Z,27.85
2019-03-24T02:46:57.411Z,28.02
2019-03-24T02:49:25.461Z,27.15
2019-03-24T02:51:54.275Z,27.37
2019-03-24T02:54:22.328Z,27.92
2019-03-24T02:56:50.352Z,26.57
2019-03-24T02:59:18.400Z,27.15
2019-03-24T03:01:46.458Z,27.33
2019-03-24T03:04:14.500Z,26.77
2019-03-24T03:06:43.312Z,26.77
2019-03-24T03:09:11.361Z,27.10
2019-03-24T03:11:39.465Z,27.67
2019-03-24T03:14:07.512Z,27.37
2019-03-24T03:16:38.616Z,26.73
2019-03-24T03:19:04.352Z,26.83
2019-03-24T03:21:32.392Z,27.55
2019-03-24T03:24:00.434Z,27.37
2019-03-24T03:26:28.486Z,28.52
2019-03-24T03:28:56.537Z,27.92
2019-03-24T03:31:25.465Z,27.13
2019-03-24T03:33:54.253Z,28.73
2019-03-24T03:36:22.305Z,27.35
2019-03-24T03:38:50.360Z,27.67
2019-03-24T03:41:19.177Z,27.50
2019-03-24T03:43:47.231Z,27.70
2019-03-24T03:46:15.326Z,28.00
2019-03-24T03:48:44.095Z,28.20
2019-03-24T03:51:12.180Z,27.58
2019-03-24T03:53:40.356Z,27.48
2019-03-24T03:56:08.402Z,27.58
2019-03-24T03:58:36.446Z,27.08
2019-03-24T04:01:04.509Z,26.65
2019-03-24T04:03:32.565Z,26.90
2019-03-24T04:06:00.688Z,26.35
2019-03-24T04:08:28.766Z,28.05
2019-03-24T04:10:56.804Z,27.70
2019-03-24T04:13:25.624Z,28.08
2019-03-24T04:15:53.698Z,28.60
2019-03-24T04:18:21.756Z,27.17
2019-03-24T04:20:49.797Z,27.98
2019-03-24T04:23:17.995Z,27.15
2019-03-24T04:25:46.037Z,28.20
2019-03-24T04:28:14.096Z,27.58
2019-03-24T04:30:42.165Z,28.17
2019-03-24T04:33:10.188Z,27.80
2019-03-24T04:35:38.236Z,27.58
2019-03-24T04:38:07.069Z,27.73
2019-03-24T04:40:35.086Z,27.20
2019-03-24T04:43:03.908Z,26.65
2019-03-24T04:45:31.954Z,26.50
2019-03-24T04:47:59.993Z,26.87
2019-03-24T04:50:28.114Z,26.45
2019-03-24T04:52:56.181Z,26.95
2019-03-24T04:55:24.241Z,26.90
2019-03-24T04:57:52.780Z,26.37
2019-03-24T05:00:20.807Z,26.33
2019-03-24T05:02:49.601Z,26.80
2019-03-24T05:05:17.674Z,26.90
2019-03-24T05:07:45.732Z,26.17
2019-03-24T05:10:27.120Z,26.60
2019-03-24T05:12:55.190Z,27.55
2019-03-24T05:15:23.975Z,27.47
2019-03-24T05:17:52.023Z,25.30
2019-03-24T05:20:20.841Z,26.15
2019-03-24T05:22:48.886Z,26.08
2019-03-24T05:25:16.972Z,25.67
2019-03-24T05:27:45.078Z,26.33
2019-03-24T05:30:13.227Z,26.20
2019-03-24T05:32:41.247Z,26.27
2019-03-24T05:35:09.303Z,26.60
2019-03-24T05:37:37.435Z,26.05
2019-03-24T05:40:05.479Z,25.77
2019-03-24T05:42:34.295Z,26.33
2019-03-24T05:45:02.351Z,26.70
2019-03-24T05:47:37.170Z,25.85
2019-03-24T05:49:58.616Z,25.70
2019-03-24T05:52:27.668Z,25.50
2019-03-24T05:54:54.744Z,25.83
2019-03-24T05:57:22.787Z,25.62
2019-03-24T05:59:50.852Z,26.05
2019-03-24T06:02:19.677Z,25.75
2019-03-24T06:04:48.471Z,25.43
2019-03-24T06:07:16.538Z,25.65
2019-03-24T06:09:44.595Z,25.80
2019-03-24T06:12:12.647Z,25.45
2019-03-24T06:14:41.462Z,25.95
2019-03-24T06:17:09.507Z,26.40
2019-03-24T06:19:38.414Z,26.27
2019-03-24T06:22:06.455Z,26.92
2019-03-24T06:24:35.290Z,27.33
2019-03-24T06:27:03.322Z,27.10
2019-03-24T06:29:32.142Z,25.50
2019-03-24T06:32:00.210Z,26.55
2019-03-24T06:34:28.273Z,26.20
2019-03-24T06:36:56.317Z,24.55
2019-03-24T06:39:25.161Z,25.92
2019-03-24T06:41:53.213Z,24.87
2019-03-24T06:44:21.275Z,25.52
2019-03-24T06:46:49.352Z,25.88
2019-03-24T06:49:17.406Z,25.23
2019-03-24T06:51:45.452Z,25.02
2019-03-24T06:54:14.371Z,25.15
2019-03-24T06:56:42.423Z,25.17
2019-03-24T06:59:10.527Z,26.08
2019-03-24T07:01:38.583Z,25.90
2019-03-24T07:04:06.664Z,25.17
2019-03-24T07:06:35.455Z,25.97
2019-03-24T07:09:03.508Z,26.58
2019-03-24T07:11:31.587Z,26.90
2019-03-24T07:13:59.651Z,27.62
2019-03-24T07:16:27.719Z,27.62
2019-03-24T07:18:55.798Z,27.42
2019-03-24T07:21:23.865Z,27.75
2019-03-24T07:23:51.910Z,27.52
2019-03-24T07:26:20.829Z,29.20
2019-03-24T07:28:48.882Z,30.77
2019-03-24T07:31:16.962Z,30.10
2019-03-24T07:33:45.850Z,31.57
2019-03-24T07:36:13.919Z,33.20
2019-03-24T07:38:41.994Z,33.67
2019-03-24T07:41:10.051Z,33.47
2019-03-24T07:43:38.150Z,33.17
2019-03-24T07:46:06.310Z,33.00
2019-03-24T07:48:34.363Z,34.63
2019-03-24T07:51:02.425Z,34.90
2019-03-24T07:53:31.251Z,33.33
2019-03-24T07:55:59.408Z,33.75
2019-03-24T07:58:27.493Z,34.67
2019-03-24T08:00:55.540Z,32.83
2019-03-24T08:03:23.600Z,33.20
2019-03-24T08:05:52.427Z,32.20
2019-03-24T08:08:20.487Z,32.60
2019-03-24T08:10:48.650Z,31.30
2019-03-24T08:13:16.700Z,32.08
2019-03-24T08:15:45.531Z,31.95
2019-03-24T08:18:13.574Z,33.42
2019-03-24T08:20:41.647Z,33.10
2019-03-24T08:23:09.711Z,33.08
2019-03-24T08:25:37.763Z,32.92
2019-03-24T08:28:06.604Z,32.60
2019-03-24T08:30:34.699Z,32.92
2019-03-24T08:33:02.849Z,31.83
2019-03-24T08:35:30.986Z,32.70
2019-03-24T08:37:59.066Z,33.20
2019-03-24T08:40:27.135Z,34.17
2019-03-24T08:42:55.206Z,34.53
2019-03-24T08:45:25.112Z,33.85
2019-03-24T08:47:54.024Z,35.37
2019-03-24T08:50:22.089Z,35.58
2019-03-24T08:52:50.263Z,34.50
2019-03-24T08:55:18.328Z,35.55
2019-03-24T08:57:46.403Z,35.15
2019-03-24T09:00:14.456Z,36.35
2019-03-24T09:02:42.555Z,35.85
2019-03-24T09:05:10.612Z,35.60
2019-03-24T09:07:38.681Z,36.30
2019-03-24T09:10:06.758Z,37.58
2019-03-24T09:12:34.812Z,37.92
2019-03-24T09:15:02.919Z,38.78
2019-03-24T09:17:31.207Z,37.55
2019-03-24T09:19:59.245Z,37.08
2019-03-24T09:22:27.329Z,37.88
2019-03-24T09:24:55.442Z,38.47
2019-03-24T09:27:24.327Z,37.60
2019-03-24T09:29:52.467Z,37.70
2019-03-24T09:32:20.534Z,37.53
2019-03-24T09:34:48.615Z,38.37
2019-03-24T09:37:16.749Z,39.13
2019-03-24T09:39:44.798Z,39.92
2019-03-24T09:42:13.714Z,40.30
2019-03-24T09:44:41.788Z,39.63
2019-03-24T09:47:09.831Z,40.53
2019-03-24T09:49:38.655Z,39.63
2019-03-24T09:52:06.714Z,38.30
2019-03-24T09:54:34.785Z,37.65
2019-03-24T09:57:02.850Z,38.15
2019-03-24T09:59:31.848Z,39.03
2019-03-24T10:01:59.927Z,37.42
2019-03-24T10:04:27.978Z,38.13
2019-03-24T10:06:56.062Z,37.53
2019-03-24T10:09:24.130Z,37.10
2019-03-24T10:11:52.175Z,37.97
2019-03-24T10:14:20.987Z,36.92
2019-03-24T10:16:49.038Z,38.58
2019-03-24T10:19:17.939Z,38.00
2019-03-24T10:24:30.443Z,38.72
2019-03-24T10:26:59.264Z,37.35
2019-03-24T10:29:27.380Z,37.20
2019-03-24T10:31:55.507Z,37.08
2019-03-24T10:34:23.557Z,38.45
2019-03-24T10:36:52.359Z,38.13
2019-03-24T10:39:21.280Z,36.38
2019-03-24T10:41:49.334Z,36.40
2019-03-24T10:44:17.392Z,36.95
2019-03-24T10:46:45.466Z,37.25
2019-03-24T10:49:24.161Z,37.20
2019-03-24T10:51:41.699Z,36.63
2019-03-24T10:54:09.776Z,36.45
2019-03-24T10:56:37.846Z,36.10
2019-03-24T10:59:05.922Z,37.55
2019-03-24T11:01:33.985Z,36.90
2019-03-24T11:04:02.781Z,37.30
2019-03-24T11:06:30.806Z,36.83
2019-03-24T11:08:59.651Z,36.85
2019-03-24T11:11:27.800Z,36.63
2019-03-24T11:13:56.683Z,37.40
2019-03-24T11:16:24.746Z,37.33
2019-03-24T11:18:52.812Z,36.30
2019-03-24T11:21:20.909Z,39.15
2019-03-24T11:23:48.970Z,38.42
2019-03-24T11:26:17.011Z,36.75
2019-03-24T11:28:45.834Z,37.58
2019-03-24T11:31:14.715Z,36.67
2019-03-24T11:33:42.788Z,36.58
2019-03-24T11:36:10.831Z,37.45
2019-03-24T11:38:39.760Z,37.33
2019-03-24T11:41:08.639Z,37.73
2019-03-24T11:43:36.698Z,38.75
2019-03-24T11:46:04.753Z,37.83
2019-03-24T11:48:33.582Z,38.47
2019-03-24T11:51:01.604Z,37.87
2019-03-24T11:53:30.422Z,38.90
2019-03-24T11:55:58.703Z,37.72
2019-03-24T11:58:26.767Z,37.13
2019-03-24T12:00:54.840Z,36.55
2019-03-24T12:03:25.231Z,37.40
2019-03-24T12:05:51.701Z,36.72
2019-03-24T12:08:19.773Z,36.50
2019-03-24T12:10:47.853Z,35.35
2019-03-24T12:13:16.022Z,35.97
2019-03-24T12:15:44.804Z,36.67
2019-03-24T12:18:12.839Z,36.10
2019-03-24T12:20:41.770Z,34.47
2019-03-24T12:23:09.821Z,34.22
2019-03-24T12:25:37.870Z,34.53
2019-03-24T12:28:06.799Z,35.35
2019-03-24T12:30:34.848Z,34.53
2019-03-24T12:33:02.899Z,34.58
2019-03-24T12:35:30.999Z,35.33
2019-03-24T12:37:59.064Z,35.47
2019-03-24T12:40:27.123Z,35.13
2019-03-24T12:42:55.212Z,34.33
2019-03-24T12:45:23.291Z,33.53
2019-03-24T12:47:51.346Z,33.03
2019-03-24T12:50:30.673Z,33.67
2019-03-24T12:52:47.419Z,35.05
2019-03-24T12:55:15.479Z,32.70
2019-03-24T12:57:44.253Z,32.42
2019-03-24T13:00:11.709Z,26.17
2019-03-24T13:02:39.750Z,30.37
2019-03-24T13:05:08.472Z,30.62
2019-03-24T13:07:36.651Z,30.15
2019-03-24T13:10:05.523Z,31.55
2019-03-24T13:12:33.596Z,30.92
2019-03-24T13:15:01.659Z,30.67
2019-03-24T13:17:29.719Z,31.45
2019-03-24T13:19:57.796Z,33.00
2019-03-24T13:22:25.848Z,34.17
2019-03-24T13:24:54.766Z,32.67
2019-03-24T13:27:23.607Z,33.67
2019-03-24T13:29:51.623Z,30.30
2019-03-24T13:32:19.687Z,29.42
2019-03-24T13:34:47.732Z,27.33
2019-03-24T13:37:15.759Z,26.17
2019-03-24T13:39:43.814Z,27.15
2019-03-24T13:42:11.874Z,27.15
2019-03-24T13:44:40.759Z,28.38
2019-03-24T13:47:08.823Z,27.55
2019-03-24T13:49:36.908Z,28.98
2019-03-24T13:52:04.970Z,31.60
2019-03-24T13:54:33.019Z,29.48
2019-03-24T13:57:01.946Z,27.48
2019-03-24T13:59:29.999Z,26.05
2019-03-24T14:01:58.807Z,26.87
2019-03-24T14:04:26.827Z,27.17
2019-03-24T14:06:54.942Z,27.10
2019-03-24T14:09:22.987Z,28.50
2019-03-24T14:11:51.071Z,27.83
2019-03-24T14:14:19.137Z,24.67
2019-03-24T14:16:47.219Z,26.58
2019-03-24T14:19:15.283Z,27.13
2019-03-24T14:21:43.367Z,24.90
2019-03-24T14:24:11.425Z,25.75
2019-03-24T14:26:39.478Z,26.52
2019-03-24T14:29:08.389Z,25.52
2019-03-24T14:31:36.568Z,25.75
2019-03-24T14:34:04.616Z,23.50
2019-03-24T14:36:32.638Z,24.93
2019-03-24T14:39:00.694Z,25.20
2019-03-24T14:41:28.843Z,25.50
2019-03-24T14:43:57.730Z,25.13
2019-03-24T14:46:25.815Z,24.87
2019-03-24T14:48:53.868Z,24.90
2019-03-24T14:51:21.926Z,27.40
2019-03-24T14:53:50.751Z,24.05
2019-03-24T14:56:18.920Z,27.75
2019-03-24T14:58:46.984Z,28.48
2019-03-24T15:01:15.863Z,28.13
2019-03-24T15:03:43.972Z,27.67
2019-03-24T15:06:12.105Z,24.52
2019-03-24T15:08:40.183Z,24.75
2019-03-24T15:11:08.300Z,23.95
2019-03-24T15:13:36.527Z,24.95
2019-03-24T15:16:04.602Z,28.98
2019-03-24T15:18:32.671Z,28.67
2019-03-24T15:21:05.505Z,27.58
2019-03-24T15:23:28.814Z,27.42
2019-03-24T15:25:56.855Z,24.12
2019-03-24T15:28:25.675Z,24.27
2019-03-24T15:30:53.723Z,23.08
2019-03-24T15:33:21.820Z,28.65
2019-03-24T15:35:49.874Z,27.30
2019-03-24T15:38:18.778Z,30.43
2019-03-24T15:40:49.432Z,29.70
2019-03-24T15:43:14.916Z,30.17
2019-03-24T15:45:43.712Z,30.53
2019-03-24T15:48:11.777Z,29.75
2019-03-24T15:50:39.849Z,31.45
2019-03-24T15:53:07.902Z,32.45
2019-03-24T15:55:36.183Z,35.30
2019-03-24T15:58:04.244Z,35.67
2019-03-24T16:00:47.175Z,36.53
2019-03-24T16:03:15.240Z,36.00
2019-03-24T16:05:43.276Z,37.80
2019-03-24T16:08:12.102Z,37.92
2019-03-24T16:10:40.282Z,39.38
2019-03-24T16:13:08.333Z,39.65
2019-03-24T16:15:36.524Z,39.40
2019-03-24T16:18:04.613Z,39.30
2019-03-24T16:20:32.654Z,39.38
2019-03-24T16:23:00.704Z,38.50
2019-03-24T16:25:28.725Z,39.00
2019-03-24T16:27:56.782Z,38.47
2019-03-24T16:30:25.175Z,39.95
2019-03-24T16:32:53.332Z,39.13
2019-03-24T16:35:21.413Z,40.20
2019-03-24T16:37:49.470Z,40.20
2019-03-24T16:40:18.454Z,39.30
2019-03-24T16:42:46.628Z,39.22
2019-03-24T16:45:15.528Z,40.47
2019-03-24T16:47:43.583Z,40.85
2019-03-24T16:50:11.643Z,42.10
2019-03-24T16:52:39.704Z,42.00
2019-03-24T16:55:08.540Z,42.08
2019-03-24T16:57:36.904Z,42.50
2019-03-24T17:00:04.966Z,43.78
2019-03-24T17:02:33.759Z,44.80
2019-03-24T17:05:01.831Z,46.35
2019-03-24T17:07:29.895Z,44.47
2019-03-24T17:09:57.963Z,46.03
2019-03-24T17:12:26.025Z,46.83
2019-03-24T17:14:54.107Z,46.15
2019-03-24T17:17:22.174Z,46.33
2019-03-24T17:19:50.254Z,46.37
2019-03-24T17:22:18.290Z,47.08
2019-03-24T17:24:47.202Z,48.03
2019-03-24T17:27:15.247Z,48.33
2019-03-24T17:29:44.172Z,49.72
2019-03-24T17:32:12.245Z,49.10
2019-03-24T17:34:40.423Z,48.95
2019-03-24T17:37:08.473Z,50.90
2019-03-24T17:39:36.530Z,50.50
2019-03-24T17:42:04.580Z,49.60
2019-03-24T17:44:32.691Z,50.35
2019-03-24T17:47:00.731Z,49.85
2019-03-24T17:49:28.858Z,49.07
2019-03-24T17:52:01.015Z,49.53
2019-03-24T17:54:24.972Z,47.90
2019-03-24T17:56:53.052Z,48.47
2019-03-24T17:59:21.122Z,48.60
2019-03-24T18:01:49.175Z,47.67
2019-03-24T18:04:17.268Z,47.17
2019-03-24T18:06:45.324Z,48.67
2019-03-24T18:09:13.391Z,48.72
2019-03-24T18:11:41.515Z,48.72
2019-03-24T18:14:09.573Z,48.45
2019-03-24T18:16:37.587Z,47.57
2019-03-24T18:19:05.635Z,48.67
2019-03-24T18:21:33.792Z,48.13
2019-03-24T18:24:01.809Z,48.45
2019-03-24T18:26:29.894Z,48.47
2019-03-24T18:28:57.939Z,47.67
2019-03-24T18:31:26.133Z,47.88
2019-03-24T18:33:55.011Z,48.20
2019-03-24T18:36:23.074Z,47.03
2019-03-24T18:38:51.140Z,48.55
2019-03-24T18:41:19.237Z,48.17
2019-03-24T18:43:47.264Z,46.60
2019-03-24T18:46:15.316Z,46.30
2019-03-24T18:48:43.342Z,46.93
2019-03-24T18:51:11.434Z,46.60
2019-03-24T18:53:39.488Z,46.47
2019-03-24T18:56:07.555Z,46.90
2019-03-24T18:58:35.670Z,46.30
2019-03-24T19:01:03.790Z,46.20
2019-03-24T19:03:31.876Z,45.47
2019-03-24T19:05:59.914Z,46.03
2019-03-24T19:08:28.738Z,45.53
2019-03-24T19:10:56.899Z,44.83
2019-03-24T19:13:24.968Z,43.95
2019-03-24T19:15:53.226Z,44.17
2019-03-24T19:18:22.039Z,44.00
2019-03-24T19:20:50.202Z,44.75
2019-03-24T19:23:18.282Z,43.47
2019-03-24T19:25:46.343Z,44.25
2019-03-24T19:28:15.228Z,43.30
2019-03-24T19:30:43.278Z,44.20
2019-03-24T19:33:11.392Z,44.43
2019-03-24T19:35:39.555Z,46.37
2019-03-24T19:38:07.659Z,46.00
2019-03-24T19:40:35.684Z,46.15
2019-03-24T19:43:03.759Z,46.50
2019-03-24T19:45:32.693Z,47.00
2019-03-24T19:48:00.777Z,46.30
2019-03-24T19:50:28.799Z,47.27
2019-03-24T19:52:56.865Z,47.22
2019-03-24T19:55:24.910Z,48.22
2019-03-24T19:57:53.731Z,46.83
2019-03-24T20:00:21.787Z,47.93
2019-03-24T20:05:47.793Z,47.27
2019-03-24T20:08:16.823Z,47.53
2019-03-24T20:10:44.870Z,48.17
2019-03-24T20:13:12.928Z,47.50
2019-03-24T20:15:41.762Z,47.13
2019-03-24T20:18:09.814Z,48.55
2019-03-24T20:20:37.870Z,47.65
2019-03-24T20:23:06.713Z,48.80
2019-03-24T20:25:34.834Z,48.30
2019-03-24T20:28:02.892Z,47.72
2019-03-24T20:30:31.814Z,48.75
2019-03-24T20:32:59.865Z,48.00
2019-03-24T20:35:27.954Z,47.97
2019-03-24T20:37:56.011Z,49.75
2019-03-24T20:40:24.082Z,48.40
2019-03-24T20:42:52.164Z,50.12
2019-03-24T20:45:20.244Z,51.10
2019-03-24T20:47:48.310Z,49.45
2019-03-24T20:50:16.372Z,49.25
2019-03-24T20:52:44.430Z,50.33
2019-03-24T20:55:13.227Z,51.07
2019-03-24T20:57:41.317Z,49.83
2019-03-24T21:00:10.114Z,51.43
2019-03-24T21:02:38.182Z,51.17
2019-03-24T21:05:06.262Z,52.05
2019-03-24T21:07:34.279Z,51.20
2019-03-24T21:10:02.371Z,49.47
2019-03-24T21:12:30.545Z,49.40
2019-03-24T21:14:58.611Z,50.53
2019-03-24T21:17:26.677Z,50.50
2019-03-24T21:19:54.754Z,49.53
2019-03-24T21:22:22.802Z,49.13
2019-03-24T21:24:51.715Z,49.45
2019-03-24T21:27:19.766Z,49.45
2019-03-24T21:29:47.833Z,48.38
2019-03-24T21:32:16.640Z,47.00
2019-03-24T21:34:44.706Z,48.40
2019-03-24T21:37:12.750Z,48.63
2019-03-24T21:39:41.574Z,49.17
2019-03-24T21:42:09.643Z,50.00
2019-03-24T21:44:37.794Z,49.55
2019-03-24T21:47:06.624Z,49.10
2019-03-24T21:49:34.724Z,49.13
2019-03-24T21:52:02.775Z,50.12
2019-03-24T21:54:30.929Z,49.63
2019-03-24T21:56:58.983Z,48.67
2019-03-24T21:59:27.043Z,50.55
2019-03-24T22:01:55.087Z,48.10
2019-03-24T22:04:23.143Z,50.60
2019-03-24T22:06:51.163Z,48.77
2019-03-24T22:09:19.214Z,49.75
2019-03-24T22:11:48.122Z,50.30
2019-03-24T22:14:16.184Z,49.28
2019-03-24T22:16:44.997Z,49.22
2019-03-24T22:19:13.158Z,50.20
2019-03-24T22:21:41.213Z,51.45
2019-03-24T22:24:09.262Z,52.08
2019-03-24T22:26:38.078Z,50.65
2019-03-24T22:29:06.140Z,55.22
2019-03-24T22:31:34.188Z,52.53
2019-03-24T22:34:02.288Z,53.33
2019-03-24T22:36:30.394Z,52.92
2019-03-24T22:38:58.534Z,52.65
2019-03-24T22:41:27.323Z,52.87
2019-03-24T22:43:55.397Z,52.08
2019-03-24T22:46:23.491Z,50.12
2019-03-24T22:48:52.266Z,50.20
2019-03-24T22:51:20.312Z,48.97
2019-03-24T22:53:48.397Z,49.83
2019-03-24T22:56:16.452Z,49.05
2019-03-24T22:58:44.490Z,48.90
2019-03-24T23:01:12.546Z,48.90
2019-03-24T23:03:40.562Z,50.13
2019-03-24T23:06:08.606Z,49.50
2019-03-24T23:08:37.434Z,49.58
2019-03-24T23:11:05.488Z,49.85
2019-03-24T23:13:33.563Z,49.58
2019-03-24T23:16:01.610Z,49.67
2019-03-24T23:18:29.720Z,49.78
2019-03-24T23:20:58.522Z,49.70
2019-03-24T23:23:26.667Z,49.05
2019-03-24T23:25:54.738Z,49.78
2019-03-24T23:28:22.870Z,49.17
2019-03-24T23:30:50.986Z,48.28
2019-03-24T23:33:19.075Z,48.58
2019-03-24T23:35:47.118Z,50.12
2019-03-24T23:38:15.173Z,48.25
2019-03-24T23:40:43.195Z,48.03
2019-03-24T23:43:11.230Z,48.10
2019-03-24T23:45:39.328Z,48.80
2019-03-24T23:48:07.391Z,48.28
2019-03-24T23:50:35.447Z,47.75
2019-03-24T23:53:04.235Z,48.67
2019-03-24T23:55:32.307Z,47.00
2019-03-24T23:58:01.087Z,48.67
